Time;durP1;ratioP1;P1;durP2;ratioP2;P2;SDS_P1;SDS_P2;PMS_P1;PMS_P2;Temp;Humidity;BMP_temperature;BMP_pressure;BME280_temperature;BME280_humidity;BME280_pressure;Samples;Min_cycle;Max_cycle;Signal;HPM_P1;HPM_P2
2022/04/11 00:01:56;;;;;;;6.85;3.20;;;7.90;99.90;;;;;;4125873;28;20042;-62
2022/04/11 00:03:57;;;;;;;5.25;3.20;;;7.90;99.90;;;;;;4127484;28;20132;-62
2022/04/11 00:05:58;;;;;;;5.85;3.08;;;7.90;99.90;;;;;;4128134;28;20030;-62
2022/04/11 00:07:59;;;;;;;5.38;3.08;;;7.80;99.90;;;;;;4128546;28;20198;-62
2022/04/11 00:09:59;;;;;;;5.55;3.08;;;7.80;99.90;;;;;;4128648;28;20089;-62
2022/04/11 00:12:00;;;;;;;7.45;3.55;;;7.80;99.90;;;;;;4127907;28;20479;-62
2022/04/11 00:14:04;;;;;;;5.13;2.90;;;7.80;99.90;;;;;;4128491;28;20035;-63
2022/04/11 00:16:07;;;;;;;6.95;3.60;;;7.90;99.90;;;;;;4125917;28;20490;-64
2022/04/11 00:18:08;;;;;;;5.63;3.17;;;7.90;99.90;;;;;;4126859;28;20093;-62
2022/04/11 00:20:09;;;;;;;6.03;3.47;;;7.90;99.90;;;;;;4128250;28;20046;-64
2022/04/11 00:22:10;;;;;;;5.65;3.80;;;7.90;99.90;;;;;;4128014;28;20065;-65
2022/04/11 00:24:10;;;;;;;8.18;3.90;;;7.90;99.90;;;;;;4127755;28;20056;-64
2022/04/11 00:26:11;;;;;;;7.40;3.65;;;7.90;99.90;;;;;;4127226;28;20035;-63
2022/04/11 00:28:12;;;;;;;6.57;3.65;;;7.90;99.90;;;;;;4127513;28;20457;-63
2022/04/11 00:30:13;;;;;;;5.95;3.15;;;7.80;99.90;;;;;;4125769;28;20034;-63
2022/04/11 00:32:13;;;;;;;6.45;3.35;;;7.80;99.90;;;;;;4127512;28;20065;-63
2022/04/11 00:34:14;;;;;;;7.20;4.00;;;7.80;99.90;;;;;;4128222;28;20042;-62
2022/04/11 00:36:15;;;;;;;7.45;4.18;;;7.80;99.90;;;;;;4127534;28;20820;-63
2022/04/11 00:38:15;;;;;;;8.95;4.40;;;7.70;99.90;;;;;;4128244;28;20089;-62
2022/04/11 00:40:16;;;;;;;7.50;4.05;;;7.60;99.90;;;;;;4127776;28;20037;-63
2022/04/11 00:42:16;;;;;;;7.35;3.80;;;7.60;99.90;;;;;;4144759;28;20114;-63
2022/04/11 00:44:17;;;;;;;8.18;4.05;;;7.50;99.90;;;;;;4135249;28;20026;-63
2022/04/11 00:46:17;;;;;;;8.23;3.67;;;7.50;99.90;;;;;;4138896;28;20490;-62
2022/04/11 00:48:18;;;;;;;6.55;3.53;;;7.50;99.90;;;;;;4132086;28;20030;-62
2022/04/11 00:50:19;;;;;;;8.23;3.97;;;7.40;99.90;;;;;;4126564;28;20113;-63
2022/04/11 00:52:21;;;;;;;6.57;3.97;;;7.40;99.90;;;;;;4127334;28;20498;-62
2022/04/11 00:54:22;;;;;;;6.50;4.00;;;7.40;99.90;;;;;;4138949;28;20046;-63
2022/04/11 00:56:25;;;;;;;7.63;4.40;;;7.40;99.90;;;;;;4126549;28;20043;-62
2022/04/11 00:58:28;;;;;;;6.25;4.10;;;7.50;99.90;;;;;;4130496;28;20080;-62
2022/04/11 01:00:29;;;;;;;;;;;7.50;99.90;;;;;;4122957;28;20109;-63
2022/04/11 01:02:29;;;;;;;5.70;3.70;;;7.50;99.90;;;;;;4128285;28;19922;-63
2022/04/11 01:04:30;;;;;;;6.53;4.18;;;7.50;99.90;;;;;;4127726;28;20038;-62
2022/04/11 01:06:33;;;;;;;7.18;4.10;;;7.60;99.90;;;;;;4127052;28;20389;-63
2022/04/11 01:08:35;;;;;;;7.07;4.22;;;7.50;99.90;;;;;;4127354;28;20113;-63
2022/04/11 01:10:36;;;;;;;6.88;4.28;;;7.50;99.90;;;;;;4124142;28;20057;-64
2022/04/11 01:12:36;;;;;;;8.68;4.68;;;7.50;99.90;;;;;;4126073;28;20386;-64
2022/04/11 01:14:37;;;;;;;7.03;4.40;;;7.50;99.90;;;;;;4127240;28;20097;-63
2022/04/11 01:16:38;;;;;;;11.13;4.43;;;7.60;99.90;;;;;;4127571;28;20478;-63
2022/04/11 01:18:39;;;;;;;7.93;4.15;;;7.60;99.90;;;;;;4125309;28;20516;-63
2022/04/11 01:20:40;;;;;;;7.60;4.00;;;7.70;99.90;;;;;;4127007;28;20043;-64
2022/04/11 01:22:41;;;;;;;7.15;4.13;;;7.70;99.90;;;;;;4125399;28;20037;-63
2022/04/11 01:24:42;;;;;;;6.63;4.25;;;7.70;99.90;;;;;;4127218;28;20057;-63
2022/04/11 01:26:43;;;;;;;7.07;4.40;;;7.60;99.90;;;;;;4132794;28;20102;-64
2022/04/11 01:28:44;;;;;;;6.00;3.35;;;7.60;99.90;;;;;;4136104;28;20034;-63
2022/04/11 01:30:46;;;;;;;7.07;3.42;;;7.60;99.90;;;;;;4137567;28;20057;-63
2022/04/11 01:32:46;;;;;;;6.97;3.90;;;7.60;99.90;;;;;;4139995;28;20041;-63
2022/04/11 01:34:47;;;;;;;8.48;3.88;;;7.60;99.90;;;;;;4133533;28;20026;-63
2022/04/11 01:36:48;;;;;;;8.57;4.30;;;7.60;99.90;;;;;;4127437;28;20046;-63
2022/04/11 01:38:48;;;;;;;7.65;3.88;;;7.60;99.90;;;;;;4128644;28;20038;-63
2022/04/11 01:40:50;;;;;;;8.65;3.90;;;7.50;99.90;;;;;;4133308;28;20033;-63
2022/04/11 01:42:55;;;;;;;8.23;3.53;;;7.40;99.90;;;;;;4143533;28;20057;-63
2022/04/11 01:44:55;;;;;;;8.93;4.10;;;7.50;99.90;;;;;;4133609;28;20087;-63
2022/04/11 01:46:56;;;;;;;12.50;4.18;;;7.60;99.90;;;;;;4136420;28;20536;-63
2022/04/11 01:48:57;;;;;;;6.65;3.85;;;7.60;99.90;;;;;;4127043;28;20478;-63
2022/04/11 01:50:57;;;;;;;7.13;4.15;;;7.60;99.90;;;;;;4126105;28;20530;-63
2022/04/11 01:53:12;;;;;;;8.02;4.05;;;7.60;99.90;;;;;;4126984;28;20434;-63
2022/04/11 01:55:12;;;;;;;5.85;3.35;;;7.60;99.90;;;;;;4124770;28;20453;-64
2022/04/11 01:57:13;;;;;;;6.85;3.47;;;7.60;99.90;;;;;;4126438;28;20034;-63
2022/04/11 01:59:14;;;;;;;10.27;4.32;;;7.60;99.90;;;;;;4129519;28;20132;-63
2022/04/11 02:01:17;;;;;;;5.35;3.65;;;7.60;99.90;;;;;;4128989;28;20045;-63
2022/04/11 02:03:17;;;;;;;7.90;4.03;;;7.60;99.90;;;;;;4135502;28;20031;-63
2022/04/11 02:05:18;;;;;;;7.18;3.97;;;7.60;99.90;;;;;;4131739;28;20076;-64
2022/04/11 02:07:18;;;;;;;7.00;3.90;;;7.60;99.90;;;;;;4139888;28;20054;-63
2022/04/11 02:09:19;;;;;;;8.15;3.70;;;7.60;99.90;;;;;;4127560;28;20027;-63
2022/04/11 02:11:19;;;;;;;8.85;4.30;;;7.60;99.90;;;;;;4125543;28;20149;-64
2022/04/11 02:13:20;;;;;;;7.10;3.75;;;7.60;99.90;;;;;;4132311;28;20033;-63
2022/04/11 02:15:21;;;;;;;7.25;3.83;;;7.60;99.90;;;;;;4133000;28;20037;-63
2022/04/11 02:17:21;;;;;;;7.40;3.85;;;7.70;99.90;;;;;;4126945;28;20034;-63
2022/04/11 02:19:22;;;;;;;9.52;4.63;;;7.60;99.90;;;;;;4126862;28;20045;-63
2022/04/11 02:21:23;;;;;;;6.32;3.40;;;7.60;99.90;;;;;;4126123;28;20046;-63
2022/04/11 02:23:23;;;;;;;6.85;3.63;;;7.60;99.90;;;;;;4127290;28;20465;-63
2022/04/11 02:25:27;;;;;;;8.50;4.18;;;7.60;99.90;;;;;;4129165;28;20042;-63
2022/04/11 02:27:27;;;;;;;7.07;3.42;;;7.60;99.90;;;;;;4130189;28;20057;-63
2022/04/11 02:29:28;;;;;;;7.80;3.63;;;7.50;99.90;;;;;;4130376;28;20041;-63
2022/04/11 02:31:28;;;;;;;7.82;3.70;;;7.50;99.90;;;;;;4129571;28;20125;-63
2022/04/11 02:33:29;;;;;;;7.68;3.38;;;7.50;99.90;;;;;;4128629;28;20049;-63
2022/04/11 02:35:30;;;;;;;5.38;3.40;;;7.60;99.90;;;;;;4129752;28;20121;-63
2022/04/11 02:37:31;;;;;;;6.07;3.58;;;7.50;99.90;;;;;;4130143;28;20042;-63
2022/04/11 02:39:31;;;;;;;8.57;3.67;;;7.50;99.90;;;;;;4130185;28;20618;-63
2022/04/11 02:41:32;;;;;;;6.15;3.25;;;7.50;99.90;;;;;;4128800;28;20054;-63
2022/04/11 02:43:33;;;;;;;6.13;3.65;;;7.50;99.90;;;;;;4128251;28;20030;-63
2022/04/11 02:45:33;;;;;;;7.22;3.53;;;7.60;99.90;;;;;;4128673;28;20117;-63
2022/04/11 02:47:34;;;;;;;5.75;2.95;;;7.60;99.90;;;;;;4129304;28;20045;-63
2022/04/11 02:49:34;;;;;;;6.15;3.33;;;7.60;99.90;;;;;;4129558;28;20034;-63
2022/04/11 02:51:35;;;;;;;6.35;3.25;;;7.50;99.90;;;;;;4128957;28;20469;-63
2022/04/11 02:53:36;;;;;;;6.57;3.08;;;7.60;99.90;;;;;;4127467;28;20380;-63
2022/04/11 02:55:36;;;;;;;5.68;3.58;;;7.60;99.90;;;;;;4128147;28;20689;-65
2022/04/11 02:57:38;;;;;;;6.18;3.38;;;7.70;99.90;;;;;;4129067;28;20046;-65
2022/04/11 02:59:38;;;;;;;5.38;3.10;;;7.60;99.90;;;;;;4128795;28;20039;-64
2022/04/11 03:01:39;;;;;;;7.03;3.50;;;7.70;99.90;;;;;;4129131;28;20034;-63
2022/04/11 03:03:41;;;;;;;5.90;3.00;;;7.60;99.90;;;;;;4128305;28;20070;-63
2022/04/11 03:05:42;;;;;;;6.10;3.20;;;7.60;99.90;;;;;;4128973;28;20034;-63
2022/04/11 03:07:42;;;;;;;8.75;3.15;;;7.60;99.90;;;;;;4128918;28;20038;-64
2022/04/11 03:09:43;;;;;;;7.45;2.90;;;7.60;99.90;;;;;;4129402;28;20093;-64
2022/04/11 03:11:44;;;;;;;4.70;2.80;;;7.60;99.90;;;;;;4129182;28;20387;-63
2022/04/11 03:13:44;;;;;;;7.00;3.22;;;7.50;99.90;;;;;;4129671;28;20537;-63
2022/04/11 03:15:45;;;;;;;8.25;3.75;;;7.60;99.90;;;;;;4128544;28;20030;-64
2022/04/11 03:17:46;;;;;;;6.63;3.42;;;7.60;99.90;;;;;;4129351;28;20039;-63
2022/04/11 03:19:46;;;;;;;6.50;2.90;;;7.60;99.90;;;;;;4129427;28;20026;-64
2022/04/11 03:21:47;;;;;;;5.72;3.17;;;7.60;99.90;;;;;;4128720;28;20038;-63
2022/04/11 03:23:48;;;;;;;3.50;2.47;;;7.60;99.90;;;;;;4128524;28;20133;-63
2022/04/11 03:25:49;;;;;;;6.07;2.97;;;7.60;99.90;;;;;;4128381;28;20057;-63
2022/04/11 03:27:50;;;;;;;7.03;3.00;;;7.60;99.90;;;;;;4128974;28;20042;-63
2022/04/11 03:29:50;;;;;;;7.57;3.22;;;7.60;99.90;;;;;;4129005;28;20041;-64
2022/04/11 03:31:51;;;;;;;5.15;2.75;;;7.60;99.90;;;;;;4128827;28;20041;-63
2022/04/11 03:33:51;;;;;;;8.20;3.00;;;7.60;99.90;;;;;;4129650;28;20049;-63
2022/04/11 03:35:52;;;;;;;5.05;2.38;;;7.50;99.90;;;;;;4129206;28;20039;-64
2022/04/11 03:37:53;;;;;;;7.32;3.20;;;7.50;99.90;;;;;;4129597;28;20493;-63
2022/04/11 03:39:53;;;;;;;4.15;2.65;;;7.50;99.90;;;;;;4129445;28;20033;-63
2022/04/11 03:41:54;;;;;;;5.25;2.70;;;7.40;99.90;;;;;;4124683;28;20034;-63
2022/04/11 03:43:54;;;;;;;4.97;2.70;;;7.40;99.90;;;;;;4129645;28;20679;-63
2022/04/11 03:45:55;;;;;;;5.05;2.50;;;7.40;99.90;;;;;;4127613;28;20026;-63
2022/04/11 03:47:55;;;;;;;5.70;2.83;;;7.40;99.90;;;;;;4129411;28;20125;-63
2022/04/11 03:49:56;;;;;;;4.95;2.28;;;7.40;99.90;;;;;;4129489;28;20038;-63
2022/04/11 03:51:57;;;;;;;6.55;3.22;;;7.40;99.90;;;;;;4128495;28;20034;-63
2022/04/11 03:53:57;;;;;;;5.03;2.85;;;7.40;99.90;;;;;;4128618;28;20069;-63
2022/04/11 03:55:58;;;;;;;5.82;2.55;;;7.40;99.90;;;;;;4127522;28;20038;-64
2022/04/11 03:57:58;;;;;;;6.00;2.50;;;7.40;99.90;;;;;;4128507;28;20026;-63
2022/04/11 03:59:59;;;;;;;4.78;2.38;;;7.40;99.90;;;;;;4128241;28;20169;-63
2022/04/11 04:02:00;;;;;;;4.40;2.33;;;7.50;99.90;;;;;;4126708;28;20401;-63
2022/04/11 04:04:00;;;;;;;8.18;2.65;;;7.50;99.90;;;;;;4128549;28;20034;-63
2022/04/11 04:06:01;;;;;;;5.78;2.80;;;7.40;99.90;;;;;;4127535;28;20038;-63
2022/04/11 04:08:02;;;;;;;4.80;2.50;;;7.40;99.90;;;;;;4130728;28;20154;-64
2022/04/11 04:10:06;;;;;;;4.18;2.47;;;7.40;99.90;;;;;;4128215;28;20034;-66
2022/04/11 04:12:07;;;;;;;3.97;2.50;;;7.30;99.90;;;;;;4128059;28;20110;-63
2022/04/11 04:14:08;;;;;;;4.85;2.53;;;7.30;99.90;;;;;;4124826;28;20034;-64
2022/04/11 04:16:09;;;;;;;4.88;2.22;;;7.30;99.90;;;;;;4126483;28;20035;-63
2022/04/11 04:18:11;;;;;;;3.50;1.95;;;7.30;99.90;;;;;;4128072;28;20382;-64
2022/04/11 04:20:12;;;;;;;3.80;2.30;;;7.30;99.90;;;;;;4127142;28;20038;-63
2022/04/11 04:22:13;;;;;;;3.97;2.10;;;7.40;99.90;;;;;;4130354;28;20409;-63
2022/04/11 04:24:13;;;;;;;5.00;2.38;;;7.40;99.90;;;;;;4127578;28;20034;-64
2022/04/11 04:26:14;;;;;;;6.15;2.33;;;7.40;99.90;;;;;;4127494;28;20038;-63
2022/04/11 04:28:17;;;;;;;4.75;2.03;;;7.40;99.90;;;;;;4127735;28;20033;-65
2022/04/11 04:30:17;;;;;;;3.97;2.28;;;7.40;99.90;;;;;;4127663;28;20039;-63
2022/04/11 04:32:18;;;;;;;2.85;2.10;;;7.40;99.90;;;;;;4127895;28;20053;-64
2022/04/11 04:34:20;;;;;;;4.60;2.25;;;7.40;99.90;;;;;;4126119;28;20537;-63
2022/04/11 04:36:21;;;;;;;4.43;2.50;;;7.40;99.90;;;;;;4127289;28;20385;-63
2022/04/11 04:38:21;;;;;;;5.55;2.40;;;7.40;99.90;;;;;;4127404;28;20046;-64
2022/04/11 04:40:22;;;;;;;5.20;2.22;;;7.40;99.90;;;;;;4127798;28;20046;-63
2022/04/11 04:42:26;;;;;;;3.35;2.10;;;7.40;99.90;;;;;;4128456;28;20093;-64
2022/04/11 04:44:26;;;;;;;5.18;2.38;;;7.40;99.90;;;;;;4127196;28;20501;-63
2022/04/11 04:46:27;;;;;;;4.97;2.42;;;7.40;99.90;;;;;;4126322;28;20897;-63
2022/04/11 04:48:27;;;;;;;3.53;2.10;;;7.40;99.90;;;;;;4126019;28;20038;-63
2022/04/11 04:50:28;;;;;;;4.72;2.35;;;7.40;99.90;;;;;;4133953;28;20052;-63
2022/04/11 04:52:28;;;;;;;6.68;2.25;;;7.40;99.90;;;;;;4128504;28;20042;-63
2022/04/11 04:54:29;;;;;;;4.57;2.25;;;7.50;99.90;;;;;;4128072;28;20039;-63
2022/04/11 04:56:31;;;;;;;4.05;2.17;;;7.40;99.90;;;;;;4127433;28;20050;-63
2022/04/11 04:58:31;;;;;;;3.92;2.15;;;7.40;99.90;;;;;;4127981;28;20109;-64
2022/04/11 05:00:32;;;;;;;3.58;2.13;;;7.40;99.90;;;;;;4127111;28;20501;-64
2022/04/11 05:02:37;;;;;;;4.75;1.98;;;7.40;99.90;;;;;;4127456;28;20039;-64
2022/04/11 05:04:38;;;;;;;5.05;2.03;;;7.40;99.90;;;;;;4128205;28;20037;-65
2022/04/11 05:06:38;;;;;;;5.32;2.22;;;7.30;99.90;;;;;;4127644;28;20382;-67
2022/04/11 05:08:39;;;;;;;3.50;2.22;;;7.30;99.90;;;;;;4123414;28;20029;-65
2022/04/11 05:10:39;;;;;;;6.65;2.42;;;7.40;99.90;;;;;;4127386;28;20039;-64
2022/04/11 05:12:45;;;;;;;5.38;2.50;;;7.30;99.90;;;;;;4127593;28;20043;-66
2022/04/11 05:14:46;;;;;;;3.95;2.20;;;7.30;99.90;;;;;;4131025;28;20087;-64
2022/04/11 05:16:47;;;;;;;3.60;1.92;;;7.30;99.90;;;;;;4127221;28;20426;-65
2022/04/11 05:18:47;;;;;;;7.38;2.40;;;7.30;99.90;;;;;;4127439;28;20394;-66
2022/04/11 05:20:48;;;;;;;4.13;1.92;;;7.30;99.90;;;;;;4126209;28;20033;-64
2022/04/11 05:22:48;;;;;;;4.10;2.13;;;7.30;99.90;;;;;;4123279;28;20561;-64
2022/04/11 05:24:49;;;;;;;4.95;2.25;;;7.30;99.90;;;;;;4127294;28;20052;-64
2022/04/11 05:26:49;;;;;;;3.88;2.00;;;7.30;99.90;;;;;;4126939;28;20121;-64
2022/04/11 05:28:50;;;;;;;7.60;2.50;;;7.30;99.90;;;;;;4126914;28;20034;-64
2022/04/11 05:30:50;;;;;;;4.80;2.20;;;7.30;99.90;;;;;;4125978;28;20117;-64
2022/04/11 05:32:51;;;;;;;4.53;2.17;;;7.30;99.90;;;;;;4127200;28;20034;-64
2022/04/11 05:34:52;;;;;;;3.28;1.92;;;7.30;99.90;;;;;;4126968;28;20030;-64
2022/04/11 05:36:52;;;;;;;5.18;1.83;;;7.30;99.90;;;;;;4128472;28;20085;-65
2022/04/11 05:38:53;;;;;;;5.78;2.45;;;7.30;99.90;;;;;;4126954;28;20034;-64
2022/04/11 05:40:56;;;;;;;3.85;2.13;;;7.30;99.90;;;;;;4125378;28;20080;-64
2022/04/11 05:42:56;;;;;;;5.15;2.40;;;7.20;99.90;;;;;;4125588;28;20035;-64
2022/04/11 05:44:57;;;;;;;5.15;2.20;;;7.20;99.90;;;;;;4124873;28;20129;-64
2022/04/11 05:46:58;;;;;;;4.55;1.85;;;7.20;99.90;;;;;;4123086;28;20045;-64
2022/04/11 05:48:58;;;;;;;5.22;2.22;;;7.20;99.90;;;;;;4123106;28;20101;-64
2022/04/11 05:50:59;;;;;;;6.10;2.20;;;7.20;99.90;;;;;;4122065;28;20030;-64
2022/04/11 05:53:01;;;;;;;4.25;2.17;;;7.20;99.90;;;;;;4122795;28;20042;-64
2022/04/11 05:55:02;;;;;;;3.65;2.00;;;7.20;99.90;;;;;;4120970;28;20030;-64
2022/04/11 05:57:03;;;;;;;4.35;2.00;;;7.20;99.90;;;;;;4121980;28;20149;-65
2022/04/11 05:59:04;;;;;;;5.10;2.22;;;7.20;99.90;;;;;;4123386;28;20038;-64
2022/04/11 06:01:04;;;;;;;3.35;2.08;;;7.20;99.90;;;;;;4125846;28;20379;-64
2022/04/11 06:03:06;;;;;;;9.20;2.92;;;7.20;99.90;;;;;;4127020;28;20037;-63
2022/04/11 06:05:09;;;;;;;3.80;2.33;;;7.20;99.90;;;;;;4124719;28;20050;-65
2022/04/11 06:07:10;;;;;;;7.10;2.65;;;7.20;99.90;;;;;;4120627;28;20026;-66
2022/04/11 06:09:10;;;;;;;4.13;2.47;;;7.20;99.90;;;;;;4126615;28;20033;-65
2022/04/11 06:11:12;;;;;;;5.25;2.70;;;7.30;99.90;;;;;;4126530;28;20398;-64
2022/04/11 06:13:13;;;;;;;3.45;2.25;;;7.20;99.90;;;;;;4126239;28;20030;-63
2022/04/11 06:15:17;;;;;;;7.40;2.22;;;7.30;99.90;;;;;;4126070;28;20038;-64
2022/04/11 06:17:18;;;;;;;5.10;2.33;;;7.40;99.90;;;;;;4126714;28;20126;-64
2022/04/11 06:19:18;;;;;;;4.80;2.42;;;7.40;99.90;;;;;;4128168;28;20451;-65
2022/04/11 06:21:19;;;;;;;4.07;2.15;;;7.40;99.90;;;;;;4126396;28;20037;-65
2022/04/11 06:23:20;;;;;;;6.25;2.42;;;7.50;99.90;;;;;;4126804;28;20161;-64
2022/04/11 06:25:20;;;;;;;7.97;2.28;;;7.50;99.90;;;;;;4126374;28;20049;-64
2022/04/11 06:27:21;;;;;;;4.93;2.20;;;7.60;99.90;;;;;;4127303;28;20841;-64
2022/04/11 06:29:21;;;;;;;7.10;2.40;;;7.60;99.90;;;;;;4126787;28;20555;-64
2022/04/11 06:31:22;;;;;;;5.15;2.78;;;7.70;99.90;;;;;;4128567;28;20478;-65
2022/04/11 06:33:22;;;;;;;5.70;2.30;;;7.80;99.90;;;;;;4129674;28;20062;-65
2022/04/11 06:35:23;;;;;;;6.35;2.55;;;7.90;99.90;;;;;;4129855;28;20030;-63
2022/04/11 06:37:24;;;;;;;7.47;2.60;;;8.10;99.90;;;;;;4131618;28;20386;-63
2022/04/11 06:39:25;;;;;;;4.05;2.35;;;8.40;99.90;;;;;;4128195;28;20441;-63
2022/04/11 06:41:26;;;;;;;7.88;2.65;;;8.70;99.90;;;;;;4122425;28;20043;-63
2022/04/11 06:43:26;;;;;;;6.15;2.53;;;9.00;99.90;;;;;;4129818;28;20038;-63
2022/04/11 06:45:27;;;;;;;8.82;2.65;;;9.30;99.90;;;;;;4126778;28;20486;-64
2022/04/11 06:47:27;;;;;;;5.57;2.50;;;9.50;99.90;;;;;;4127909;28;20038;-64
2022/04/11 06:49:28;;;;;;;7.30;2.95;;;9.90;99.90;;;;;;4121228;28;20430;-64
2022/04/11 06:51:28;;;;;;;5.40;2.22;;;10.10;99.90;;;;;;4126162;28;20045;-64
2022/04/11 06:53:29;;;;;;;4.28;2.30;;;10.50;99.90;;;;;;4126815;28;20053;-64
2022/04/11 06:55:30;;;;;;;5.07;2.67;;;10.70;99.90;;;;;;4125990;28;20046;-64
2022/04/11 06:57:31;;;;;;;5.13;2.47;;;10.80;97.70;;;;;;4125629;28;20378;-64
2022/04/11 06:59:31;;;;;;;3.90;2.17;;;11.20;99.90;;;;;;4125721;28;20209;-64
2022/04/11 07:01:32;;;;;;;8.75;2.50;;;11.40;99.20;;;;;;4124737;28;20042;-64
2022/04/11 07:03:32;;;;;;;8.88;2.50;;;11.70;98.70;;;;;;4126695;28;20031;-64
2022/04/11 07:05:33;;;;;;;6.57;2.22;;;12.00;97.30;;;;;;4124619;28;20030;-64
2022/04/11 07:07:37;;;;;;;7.07;2.63;;;12.20;96.70;;;;;;4125800;28;20038;-64
2022/04/11 07:09:38;;;;;;;5.55;2.20;;;12.40;96.30;;;;;;4123046;28;20039;-65
2022/04/11 07:11:38;;;;;;;6.57;2.38;;;12.60;95.70;;;;;;4124115;28;20034;-64
2022/04/11 07:13:39;;;;;;;9.38;2.55;;;12.70;97.20;;;;;;4125771;28;20394;-63
2022/04/11 07:15:39;;;;;;;5.32;2.55;;;12.90;95.60;;;;;;4125837;28;20057;-64
2022/04/11 07:17:40;;;;;;;3.63;2.15;;;13.10;94.50;;;;;;4125145;28;20026;-64
2022/04/11 07:19:41;;;;;;;3.40;2.08;;;13.20;92.40;;;;;;4125377;28;20034;-64
2022/04/11 07:21:41;;;;;;;4.43;2.30;;;13.40;92.30;;;;;;4123736;28;20027;-65
2022/04/11 07:23:42;;;;;;;6.22;2.53;;;13.30;90.80;;;;;;4125977;28;20034;-65
2022/04/11 07:25:42;;;;;;;6.97;2.58;;;13.30;91.40;;;;;;4124971;28;20478;-65
2022/04/11 07:27:43;;;;;;;4.20;2.30;;;13.40;91.10;;;;;;4124906;28;20121;-64
2022/04/11 07:29:44;;;;;;;5.03;2.53;;;13.50;91.10;;;;;;4125653;28;20108;-64
2022/04/11 07:31:44;;;;;;;3.53;2.15;;;13.40;90.20;;;;;;4122846;28;20075;-64
2022/04/11 07:33:45;;;;;;;4.68;2.38;;;13.40;90.10;;;;;;4125979;28;20041;-64
2022/04/11 07:35:45;;;;;;;7.68;2.78;;;13.30;90.80;;;;;;4125676;28;20027;-64
2022/04/11 07:37:46;;;;;;;5.55;2.13;;;13.40;90.30;;;;;;4124252;28;20061;-64
2022/04/11 07:39:47;;;;;;;5.78;2.45;;;13.50;91.30;;;;;;4125745;28;20049;-64
2022/04/11 07:41:47;;;;;;;5.82;2.53;;;13.60;90.40;;;;;;4123275;28;20046;-64
2022/04/11 07:43:48;;;;;;;5.05;2.38;;;13.50;88.40;;;;;;4125434;28;20042;-64
2022/04/11 07:45:48;;;;;;;7.57;2.42;;;13.60;86.40;;;;;;4123846;28;20042;-64
2022/04/11 07:47:49;;;;;;;5.18;2.35;;;13.50;85.70;;;;;;4125179;28;20062;-64
2022/04/11 07:49:50;;;;;;;4.47;2.47;;;13.60;89.20;;;;;;4130765;28;20038;-65
2022/04/11 07:51:50;;;;;;;4.05;2.15;;;13.60;87.70;;;;;;4124774;28;20046;-64
2022/04/11 07:53:51;;;;;;;6.03;2.08;;;13.60;85.90;;;;;;4125191;28;20045;-63
2022/04/11 07:55:52;;;;;;;5.22;2.30;;;13.80;89.20;;;;;;4124445;28;20046;-60
2022/04/11 07:57:53;;;;;;;4.47;2.25;;;13.70;85.10;;;;;;4123808;28;20121;-64
2022/04/11 07:59:54;;;;;;;4.15;2.20;;;13.70;84.80;;;;;;4125146;28;20045;-64
2022/04/11 08:01:55;;;;;;;6.30;2.55;;;13.70;84.90;;;;;;4124977;28;20495;-64
2022/04/11 08:03:55;;;;;;;5.43;2.10;;;13.70;84.10;;;;;;4125917;28;20035;-64
2022/04/11 08:05:56;;;;;;;5.05;2.30;;;13.70;84.00;;;;;;4124848;28;20917;-65
2022/04/11 08:07:57;;;;;;;4.07;2.10;;;13.70;84.70;;;;;;4124777;28;20042;-64
2022/04/11 08:09:57;;;;;;;3.78;2.40;;;13.50;85.70;;;;;;4125088;28;20038;-64
2022/04/11 08:11:58;;;;;;;5.43;2.45;;;13.50;85.40;;;;;;4124898;28;20097;-64
2022/04/11 08:13:58;;;;;;;4.75;2.40;;;13.40;84.00;;;;;;4125168;28;20057;-64
2022/04/11 08:15:59;;;;;;;6.43;2.33;;;13.40;84.40;;;;;;4124927;28;20038;-64
2022/04/11 08:18:00;;;;;;;6.28;2.33;;;13.50;86.20;;;;;;4123190;28;20194;-63
2022/04/11 08:20:00;;;;;;;7.85;2.55;;;13.40;83.60;;;;;;4125635;28;22162;-64
2022/04/11 08:22:01;;;;;;;4.18;2.42;;;13.40;84.00;;;;;;4123510;28;20046;-64
2022/04/11 08:24:02;;;;;;;3.35;2.13;;;13.30;83.20;;;;;;4125361;28;20046;-64
2022/04/11 08:26:02;;;;;;;5.90;2.42;;;13.30;84.00;;;;;;4124758;28;20136;-63
2022/04/11 08:28:03;;;;;;;5.95;2.47;;;13.40;86.70;;;;;;4125279;28;20130;-64
2022/04/11 08:30:04;;;;;;;8.85;2.33;;;13.50;83.00;;;;;;4124277;28;20035;-64
2022/04/11 08:32:05;;;;;;;8.27;2.40;;;13.60;85.50;;;;;;4124651;28;20026;-64
2022/04/11 08:34:06;;;;;;;6.03;2.00;;;13.70;85.90;;;;;;4126556;28;20026;-63
2022/04/11 08:36:06;;;;;;;9.30;2.67;;;13.80;85.10;;;;;;4124714;28;20497;-64
2022/04/11 08:38:07;;;;;;;5.47;2.25;;;13.80;82.40;;;;;;4124513;28;20034;-64
2022/04/11 08:40:10;;;;;;;6.50;2.30;;;13.90;82.50;;;;;;4124495;28;20437;-65
2022/04/11 08:42:13;;;;;;;6.35;2.20;;;13.90;82.30;;;;;;4127025;28;20041;-64
2022/04/11 08:44:13;;;;;;;6.30;2.55;;;13.90;82.10;;;;;;4124522;28;20030;-64
2022/04/11 08:46:20;;;;;;;4.25;2.30;;;14.00;80.80;;;;;;4124436;28;20108;-63
2022/04/11 08:48:24;;;;;;;7.50;2.78;;;14.10;85.30;;;;;;4121724;28;20042;-64
2022/04/11 08:50:25;;;;;;;5.97;2.20;;;14.20;80.80;;;;;;4123258;28;20044;-64
2022/04/11 08:52:27;;;;;;;6.45;2.33;;;14.20;81.10;;;;;;4124840;28;20406;-63
2022/04/11 08:54:28;;;;;;;4.00;2.35;;;14.30;84.20;;;;;;4124582;28;20050;-63
2022/04/11 08:56:30;;;;;;;9.35;3.22;;;14.30;79.10;;;;;;4124216;28;20092;-64
2022/04/11 08:58:30;;;;;;;5.72;2.30;;;14.10;78.30;;;;;;4122178;28;20039;-64
2022/04/11 09:00:31;;;;;;;4.35;1.95;;;14.10;78.40;;;;;;4124298;28;20046;-63
2022/04/11 09:02:34;;;;;;;5.80;2.67;;;14.20;78.70;;;;;;4123065;28;20046;-64
2022/04/11 09:04:50;;;;;;;5.78;2.65;;;14.30;80.20;;;;;;4122611;28;20066;-63
2022/04/11 09:06:59;;;;;;;7.20;3.15;;;14.40;80.80;;;;;;4122661;28;20344;-65
2022/04/11 09:09:00;;;;;;;6.72;3.05;;;14.40;79.20;;;;;;4123917;28;20034;-63
2022/04/11 09:11:00;;;;;;;6.00;3.00;;;14.30;78.00;;;;;;4123795;28;20646;-64
2022/04/11 09:13:02;;;;;;;7.78;3.03;;;14.20;76.70;;;;;;4124521;28;24651;-64
2022/04/11 09:15:06;;;;;;;4.30;2.95;;;14.00;77.50;;;;;;4123293;28;20112;-64
2022/04/11 09:17:06;;;;;;;5.88;2.42;;;14.00;78.40;;;;;;4123994;28;20084;-63
2022/04/11 09:19:17;;;;;;;3.85;2.25;;;14.10;77.40;;;;;;4122095;28;20487;-64
2022/04/11 09:21:24;;;;;;;6.75;2.55;;;14.10;78.30;;;;;;4123870;28;20041;-64
2022/04/11 09:23:25;;;;;;;5.00;2.38;;;14.00;77.30;;;;;;4123515;28;20042;-64
2022/04/11 09:25:30;;;;;;;6.40;2.65;;;14.10;77.40;;;;;;4123844;28;20046;-64
2022/04/11 09:27:31;;;;;;;8.75;3.00;;;14.20;78.90;;;;;;4124775;28;20039;-63
2022/04/11 09:29:33;;;;;;;8.27;2.85;;;14.20;76.70;;;;;;4124166;28;20364;-63
2022/04/11 09:31:34;;;;;;;7.85;2.97;;;14.20;75.80;;;;;;4123989;28;20091;-64
2022/04/11 09:33:42;;;;;;;4.85;2.53;;;14.30;77.00;;;;;;4132822;28;20120;-63
2022/04/11 09:35:47;;;;;;;4.97;2.47;;;14.40;77.40;;;;;;4143488;28;20030;-64
2022/04/11 09:37:48;;;;;;;10.27;2.60;;;14.40;77.00;;;;;;4126890;28;20031;-64
2022/04/11 09:39:58;;;;;;;6.57;2.40;;;14.40;75.80;;;;;;4126545;28;20449;-64
2022/04/11 09:41:59;;;;;;;6.03;2.35;;;14.40;74.70;;;;;;4126869;28;20093;-64
2022/04/11 09:44:28;;;;;;;8.18;2.45;;;14.40;74.90;;;;;;4128002;28;20517;-63
2022/04/11 09:46:43;;;;;;;3.95;1.90;;;14.40;74.80;;;;;;4128000;28;20034;-64
2022/04/11 09:48:45;;;;;;;6.70;2.10;;;14.30;74.30;;;;;;4133710;28;20034;-64
2022/04/11 09:50:49;;;;;;;5.05;2.65;;;14.40;76.10;;;;;;4126119;28;20049;-64
2022/04/11 09:52:50;;;;;;;7.20;2.42;;;14.50;75.60;;;;;;4125366;28;20038;-64
2022/04/11 09:54:52;;;;;;;5.63;2.53;;;14.40;75.70;;;;;;4126761;28;20050;-64
2022/04/11 09:56:54;;;;;;;8.07;2.80;;;14.40;74.20;;;;;;4126301;28;20045;-64
2022/04/11 09:58:54;;;;;;;6.13;2.63;;;14.40;71.10;;;;;;4126952;28;20042;-64
2022/04/11 10:00:57;;;;;;;5.25;2.35;;;14.30;71.40;;;;;;4126343;28;20058;-63
2022/04/11 10:02:58;;;;;;;5.70;2.55;;;14.40;71.40;;;;;;4127703;28;20041;-64
2022/04/11 10:04:59;;;;;;;4.75;2.15;;;14.40;70.50;;;;;;4127297;28;20493;-64
2022/04/11 10:06:59;;;;;;;6.93;2.50;;;14.40;71.70;;;;;;4126336;28;20524;-64
2022/04/11 10:09:02;;;;;;;4.72;2.63;;;14.50;70.80;;;;;;4125679;28;20026;-64
2022/04/11 10:11:04;;;;;;;5.82;2.63;;;14.60;70.50;;;;;;4126056;28;20042;-64
2022/04/11 10:13:15;;;;;;;4.70;2.40;;;14.60;68.70;;;;;;4126795;28;20034;-64
2022/04/11 10:15:16;;;;;;;8.75;2.90;;;14.60;69.90;;;;;;4123415;28;20106;-64
2022/04/11 10:17:16;;;;;;;6.05;2.33;;;14.50;67.50;;;;;;4125952;28;20077;-64
2022/04/11 10:19:42;;;;;;;3.85;2.13;;;14.40;68.40;;;;;;4126322;28;20083;-64
2022/04/11 10:21:45;;;;;;;6.72;3.10;;;14.50;68.70;;;;;;4124648;28;20034;-64
2022/04/11 10:23:56;;;;;;;8.48;2.70;;;14.40;69.10;;;;;;4137728;28;20041;-64
2022/04/11 10:26:03;;;;;;;5.55;2.58;;;14.40;69.90;;;;;;4131438;28;20042;-64
2022/04/11 10:28:15;;;;;;;5.70;2.55;;;14.50;72.30;;;;;;4126199;28;20038;-64
2022/04/11 10:30:32;;;;;;;6.72;2.70;;;14.60;70.30;;;;;;4125423;28;20034;-65
2022/04/11 10:32:51;;;;;;;7.10;2.13;;;14.70;68.80;;;;;;4129853;28;20038;-64
2022/04/11 10:35:04;;;;;;;5.00;2.40;;;14.80;72.60;;;;;;4126319;28;20038;-64
2022/04/11 10:37:05;;;;;;;6.63;2.90;;;14.90;71.20;;;;;;4126226;28;20269;-64
2022/04/11 10:39:14;;;;;;;6.28;3.08;;;15.00;68.80;;;;;;4125818;28;20057;-64